sensor_id;sensor_type;location;lat;lon;timestamp;pressure;altitude;pressure_sealevel;temperature;humidity
6343;BME280;3204;42.698;23.298;2022-08-01T00:00:32;94860.53;;;23.06;55.84
6343;BME280;3204;42.698;23.298;2022-08-01T00:02:57;94857.75;;;23.03;55.86
6343;BME280;3204;42.698;23.298;2022-08-01T00:05:23;94854.59;;;23.04;55.36
6343;BME280;3204;42.698;23.298;2022-08-01T00:07:48;94862.84;;;22.94;55.99
6343;BME280;3204;42.698;23.298;2022-08-01T00:10:15;94862.03;;;22.86;55.84
6343;BME280;3204;42.698;23.298;2022-08-01T00:12:42;94861.28;;;22.89;55.90
6343;BME280;3204;42.698;23.298;2022-08-01T00:15:09;94864.41;;;22.84;55.82
6343;BME280;3204;42.698;23.298;2022-08-01T00:17:35;94868.31;;;22.76;55.53
6343;BME280;3204;42.698;23.298;2022-08-01T00:20:03;94875.84;;;22.83;56.25
6343;BME280;3204;42.698;23.298;2022-08-01T00:22:33;94872.31;;;22.86;55.87
6343;BME280;3204;42.698;23.298;2022-08-01T00:24:59;94871.00;;;22.62;56.65
6343;BME280;3204;42.698;23.298;2022-08-01T00:27:25;94866.44;;;22.30;57.27
6343;BME280;3204;42.698;23.298;2022-08-01T00:29:50;94879.00;;;22.20;57.71
6343;BME280;3204;42.698;23.298;2022-08-01T00:32:16;94881.00;;;22.23;58.81
6343;BME280;3204;42.698;23.298;2022-08-01T00:34:42;94871.75;;;22.02;59.73
6343;BME280;3204;42.698;23.298;2022-08-01T00:37:07;94873.06;;;21.71;61.00
6343;BME280;3204;42.698;23.298;2022-08-01T00:39:33;94880.28;;;21.46;62.04
6343;BME280;3204;42.698;23.298;2022-08-01T00:42:09;94870.16;;;21.21;62.54
6343;BME280;3204;42.698;23.298;2022-08-01T00:44:35;94866.03;;;21.04;63.23
6343;BME280;3204;42.698;23.298;2022-08-01T00:47:01;94869.03;;;20.92;63.38
6343;BME280;3204;42.698;23.298;2022-08-01T00:49:27;94866.63;;;20.91;63.63
6343;BME280;3204;42.698;23.298;2022-08-01T00:51:52;94864.94;;;20.83;63.68
6343;BME280;3204;42.698;23.298;2022-08-01T00:54:18;94868.94;;;20.85;63.48
6343;BME280;3204;42.698;23.298;2022-08-01T00:56:44;94861.06;;;20.87;63.53
6343;BME280;3204;42.698;23.298;2022-08-01T00:59:11;94858.31;;;20.87;63.46
6343;BME280;3204;42.698;23.298;2022-08-01T01:01:36;94858.03;;;20.96;63.34
6343;BME280;3204;42.698;23.298;2022-08-01T01:04:02;94851.91;;;21.09;63.13
6343;BME280;3204;42.698;23.298;2022-08-01T01:09:23;94847.28;;;21.20;62.64
6343;BME280;3204;42.698;23.298;2022-08-01T01:12:13;94842.63;;;21.28;62.43
6343;BME280;3204;42.698;23.298;2022-08-01T01:14:55;94842.25;;;21.29;62.26
6343;BME280;3204;42.698;23.298;2022-08-01T01:17:52;94847.03;;;21.32;62.15
6343;BME280;3204;42.698;23.298;2022-08-01T01:20:21;94844.31;;;21.36;61.78
6343;BME280;3204;42.698;23.298;2022-08-01T01:25:59;94830.56;;;21.43;61.78
6343;BME280;3204;42.698;23.298;2022-08-01T01:28:40;94838.13;;;21.49;61.82
6343;BME280;3204;42.698;23.298;2022-08-01T01:31:10;94826.31;;;21.52;61.69
6343;BME280;3204;42.698;23.298;2022-08-01T01:33:40;94822.06;;;21.62;61.29
6343;BME280;3204;42.698;23.298;2022-08-01T01:36:09;94829.97;;;21.63;60.96
6343;BME280;3204;42.698;23.298;2022-08-01T01:38:41;94825.25;;;21.67;61.11
6343;BME280;3204;42.698;23.298;2022-08-01T01:41:09;94824.94;;;21.72;60.52
6343;BME280;3204;42.698;23.298;2022-08-01T01:43:37;94820.25;;;21.76;60.50
6343;BME280;3204;42.698;23.298;2022-08-01T01:46:04;94812.31;;;21.71;60.55
6343;BME280;3204;42.698;23.298;2022-08-01T01:48:31;94813.09;;;21.72;60.49
6343;BME280;3204;42.698;23.298;2022-08-01T01:50:58;94816.59;;;21.65;60.63
6343;BME280;3204;42.698;23.298;2022-08-01T01:53:27;94813.50;;;21.70;60.43
6343;BME280;3204;42.698;23.298;2022-08-01T01:55:54;94806.00;;;21.71;60.13
6343;BME280;3204;42.698;23.298;2022-08-01T01:58:22;94809.94;;;21.73;59.89
6343;BME280;3204;42.698;23.298;2022-08-01T02:00:51;94813.50;;;21.70;59.89
6343;BME280;3204;42.698;23.298;2022-08-01T02:03:18;94810.66;;;21.67;60.16
6343;BME280;3204;42.698;23.298;2022-08-01T02:05:44;94807.00;;;21.52;60.77
6343;BME280;3204;42.698;23.298;2022-08-01T02:08:11;94803.31;;;21.38;61.20
6343;BME280;3204;42.698;23.298;2022-08-01T02:10:40;94804.00;;;21.28;61.58
6343;BME280;3204;42.698;23.298;2022-08-01T02:13:07;94796.09;;;21.26;61.70
6343;BME280;3204;42.698;23.298;2022-08-01T02:15:34;94791.66;;;21.15;62.03
6343;BME280;3204;42.698;23.298;2022-08-01T02:18:05;94795.16;;;21.08;62.38
6343;BME280;3204;42.698;23.298;2022-08-01T02:20:34;94793.63;;;21.14;61.77
6343;BME280;3204;42.698;23.298;2022-08-01T02:23:07;94798.38;;;21.17;61.60
6343;BME280;3204;42.698;23.298;2022-08-01T02:25:40;94802.41;;;21.27;61.10
6343;BME280;3204;42.698;23.298;2022-08-01T02:28:10;94801.59;;;21.23;61.23
6343;BME280;3204;42.698;23.298;2022-08-01T02:30:41;94799.56;;;21.20;61.05
6343;BME280;3204;42.698;23.298;2022-08-01T02:33:18;94800.38;;;21.20;60.90
6343;BME280;3204;42.698;23.298;2022-08-01T02:35:49;94799.53;;;21.13;60.81
6343;BME280;3204;42.698;23.298;2022-08-01T02:38:17;94803.84;;;21.14;60.84
6343;BME280;3204;42.698;23.298;2022-08-01T02:40:45;94797.47;;;21.06;60.64
6343;BME280;3204;42.698;23.298;2022-08-01T02:43:12;94803.78;;;21.07;60.09
6343;BME280;3204;42.698;23.298;2022-08-01T02:45:43;94803.84;;;21.14;59.53
6343;BME280;3204;42.698;23.298;2022-08-01T02:48:12;94803.84;;;21.14;59.51
6343;BME280;3204;42.698;23.298;2022-08-01T02:50:40;94796.38;;;21.14;59.23
6343;BME280;3204;42.698;23.298;2022-08-01T02:53:08;94796.31;;;21.07;59.23
6343;BME280;3204;42.698;23.298;2022-08-01T02:55:35;94797.47;;;20.73;60.39
6343;BME280;3204;42.698;23.298;2022-08-01T02:58:04;94793.31;;;20.53;61.35
6343;BME280;3204;42.698;23.298;2022-08-01T03:00:31;94800.88;;;20.60;61.06
6343;BME280;3204;42.698;23.298;2022-08-01T03:02:57;94796.16;;;20.31;61.63
6343;BME280;3204;42.698;23.298;2022-08-01T03:05:25;94795.16;;;19.90;62.78
6343;BME280;3204;42.698;23.298;2022-08-01T03:07:53;94794.06;;;19.69;63.71
6343;BME280;3204;42.698;23.298;2022-08-01T03:10:20;94792.41;;;19.64;64.26
6343;BME280;3204;42.698;23.298;2022-08-01T03:12:46;94800.47;;;19.76;64.53
6343;BME280;3204;42.698;23.298;2022-08-01T03:15:14;94802.53;;;19.83;63.59
6343;BME280;3204;42.698;23.298;2022-08-01T03:17:43;94800.47;;;19.76;63.73
6343;BME280;3204;42.698;23.298;2022-08-01T03:20:11;94806.84;;;19.58;64.10
6343;BME280;3204;42.698;23.298;2022-08-01T03:22:39;94797.88;;;19.38;64.51
6343;BME280;3204;42.698;23.298;2022-08-01T03:25:06;94787.63;;;19.16;65.29
6343;BME280;3204;42.698;23.298;2022-08-01T03:27:32;94790.56;;;19.04;66.32
6343;BME280;3204;42.698;23.298;2022-08-01T03:29:59;94797.72;;;19.09;66.43
6343;BME280;3204;42.698;23.298;2022-08-01T03:32:28;94803.81;;;19.21;66.15
6343;BME280;3204;42.698;23.298;2022-08-01T03:34:54;94793.06;;;19.13;65.97
6343;BME280;3204;42.698;23.298;2022-08-01T03:37:28;94800.50;;;19.31;66.00
6343;BME280;3204;42.698;23.298;2022-08-01T03:40:00;94801.19;;;19.47;65.47
6343;BME280;3204;42.698;23.298;2022-08-01T03:42:41;94796.72;;;19.65;65.14
6343;BME280;3204;42.698;23.298;2022-08-01T03:45:11;94799.16;;;19.70;64.98
6343;BME280;3204;42.698;23.298;2022-08-01T03:47:41;94796.09;;;19.75;64.45
6343;BME280;3204;42.698;23.298;2022-08-01T03:50:09;94800.19;;;19.85;64.38
6343;BME280;3204;42.698;23.298;2022-08-01T03:52:36;94799.13;;;19.93;64.32
6343;BME280;3204;42.698;23.298;2022-08-01T03:55:05;94800.59;;;20.09;63.69
6343;BME280;3204;42.698;23.298;2022-08-01T03:57:35;94808.72;;;20.02;63.60
6343;BME280;3204;42.698;23.298;2022-08-01T04:00:02;94811.78;;;19.97;63.65
6343;BME280;3204;42.698;23.298;2022-08-01T04:02:31;94809.44;;;19.73;64.77
6343;BME280;3204;42.698;23.298;2022-08-01T04:04:58;94810.78;;;19.83;64.42
6343;BME280;3204;42.698;23.298;2022-08-01T04:07:26;94809.09;;;19.75;64.53
6343;BME280;3204;42.698;23.298;2022-08-01T04:09:52;94811.47;;;19.76;64.50
6343;BME280;3204;42.698;23.298;2022-08-01T04:12:18;94805.88;;;19.73;64.55
6343;BME280;3204;42.698;23.298;2022-08-01T04:14:43;94812.16;;;19.70;65.10
6343;BME280;3204;42.698;23.298;2022-08-01T04:17:09;94814.03;;;19.66;64.88
6343;BME280;3204;42.698;23.298;2022-08-01T04:19:34;94817.47;;;19.59;65.63
6343;BME280;3204;42.698;23.298;2022-08-01T04:22:00;94809.66;;;19.61;65.14
6343;BME280;3204;42.698;23.298;2022-08-01T04:24:28;94812.69;;;19.56;65.66
6343;BME280;3204;42.698;23.298;2022-08-01T04:26:56;94814.31;;;19.57;65.54
6343;BME280;3204;42.698;23.298;2022-08-01T04:29:24;94817.19;;;19.42;65.83
6343;BME280;3204;42.698;23.298;2022-08-01T04:31:52;94811.53;;;19.12;66.66
6343;BME280;3204;42.698;23.298;2022-08-01T04:34:21;94814.81;;;19.21;66.94
6343;BME280;3204;42.698;23.298;2022-08-01T04:36:50;94810.41;;;19.36;66.85
6343;BME280;3204;42.698;23.298;2022-08-01T04:39:18;94808.97;;;19.45;66.18
6343;BME280;3204;42.698;23.298;2022-08-01T04:41:46;94822.75;;;19.45;66.51
6343;BME280;3204;42.698;23.298;2022-08-01T04:44:13;94819.00;;;19.57;67.89
6343;BME280;3204;42.698;23.298;2022-08-01T04:46:39;94820.50;;;19.77;66.47
6343;BME280;3204;42.698;23.298;2022-08-01T04:49:06;94814.63;;;19.78;66.31
6343;BME280;3204;42.698;23.298;2022-08-01T04:51:34;94812.06;;;19.89;66.26
6343;BME280;3204;42.698;23.298;2022-08-01T04:54:00;94804.72;;;20.00;65.81
6343;BME280;3204;42.698;23.298;2022-08-01T04:56:26;94811.72;;;20.20;64.88
6343;BME280;3204;42.698;23.298;2022-08-01T04:58:52;94819.41;;;20.33;64.42
6343;BME280;3204;42.698;23.298;2022-08-01T05:01:38;94816.66;;;20.33;64.37
6343;BME280;3204;42.698;23.298;2022-08-01T05:04:03;94809.56;;;20.32;64.17
6343;BME280;3204;42.698;23.298;2022-08-01T05:06:29;94801.72;;;20.34;64.63
6343;BME280;3204;42.698;23.298;2022-08-01T05:08:54;94811.72;;;20.46;64.41
6343;BME280;3204;42.698;23.298;2022-08-01T05:11:20;94809.91;;;20.60;63.85
6343;BME280;3204;42.698;23.298;2022-08-01T05:13:47;94811.25;;;20.73;63.71
6343;BME280;3204;42.698;23.298;2022-08-01T05:16:13;94816.09;;;20.83;62.61
6343;BME280;3204;42.698;23.298;2022-08-01T05:18:38;94811.56;;;20.98;62.20
6343;BME280;3204;42.698;23.298;2022-08-01T05:21:04;94810.09;;;21.07;61.97
6343;BME280;3204;42.698;23.298;2022-08-01T05:23:29;94814.59;;;21.22;61.61
6343;BME280;3204;42.698;23.298;2022-08-01T05:25:55;94803.25;;;21.31;61.02
6343;BME280;3204;42.698;23.298;2022-08-01T05:28:20;94803.72;;;21.40;60.81
6343;BME280;3204;42.698;23.298;2022-08-01T05:30:46;94804.63;;;21.54;60.38
6343;BME280;3204;42.698;23.298;2022-08-01T05:33:11;94801.53;;;21.59;60.07
6343;BME280;3204;42.698;23.298;2022-08-01T05:35:37;94801.66;;;21.70;59.36
6343;BME280;3204;42.698;23.298;2022-08-01T05:38:02;94810.41;;;21.82;58.88
6343;BME280;3204;42.698;23.298;2022-08-01T05:40:28;94810.50;;;21.93;59.39
6343;BME280;3204;42.698;23.298;2022-08-01T05:42:53;94810.13;;;21.94;58.93
6343;BME280;3204;42.698;23.298;2022-08-01T05:45:19;94816.53;;;22.05;59.05
6343;BME280;3204;42.698;23.298;2022-08-01T05:47:44;94806.28;;;22.09;59.45
6343;BME280;3204;42.698;23.298;2022-08-01T05:50:10;94811.91;;;22.27;58.89
6343;BME280;3204;42.698;23.298;2022-08-01T05:52:35;94807.28;;;22.41;58.37
6343;BME280;3204;42.698;23.298;2022-08-01T05:55:01;94814.50;;;22.56;56.53
6343;BME280;3204;42.698;23.298;2022-08-01T05:57:26;94810.59;;;22.71;55.70
6343;BME280;3204;42.698;23.298;2022-08-01T05:59:51;94814.19;;;22.82;55.90
6343;BME280;3204;42.698;23.298;2022-08-01T06:02:17;94811.47;;;22.93;55.10
6343;BME280;3204;42.698;23.298;2022-08-01T06:04:42;94813.91;;;23.08;54.27
6343;BME280;3204;42.698;23.298;2022-08-01T06:07:08;94819.81;;;23.07;52.95
6343;BME280;3204;42.698;23.298;2022-08-01T06:09:33;94817.06;;;23.10;53.15
6343;BME280;3204;42.698;23.298;2022-08-01T06:11:59;94819.44;;;23.15;53.89
6343;BME280;3204;42.698;23.298;2022-08-01T06:14:24;94814.72;;;23.12;54.37
6343;BME280;3204;42.698;23.298;2022-08-01T06:16:50;94808.78;;;23.17;54.47
6343;BME280;3204;42.698;23.298;2022-08-01T06:19:15;94815.56;;;23.30;54.77
6343;BME280;3204;42.698;23.298;2022-08-01T06:21:41;94816.38;;;23.41;52.69
6343;BME280;3204;42.698;23.298;2022-08-01T06:24:06;94808.50;;;23.50;50.80
6343;BME280;3204;42.698;23.298;2022-08-01T06:26:32;94821.97;;;23.69;50.62
6343;BME280;3204;42.698;23.298;2022-08-01T06:28:58;94818.81;;;23.88;50.37
6343;BME280;3204;42.698;23.298;2022-08-01T06:31:23;94813.66;;;24.11;49.80
6343;BME280;3204;42.698;23.298;2022-08-01T06:33:48;94807.28;;;24.28;48.15
6343;BME280;3204;42.698;23.298;2022-08-01T06:36:14;94812.41;;;24.47;48.07
6343;BME280;3204;42.698;23.298;2022-08-01T06:38:39;94813.19;;;24.65;47.57
6343;BME280;3204;42.698;23.298;2022-08-01T06:41:05;94820.22;;;24.87;46.92
6343;BME280;3204;42.698;23.298;2022-08-01T06:43:31;94802.72;;;25.04;46.45
6343;BME280;3204;42.698;23.298;2022-08-01T06:45:56;94802.25;;;25.20;45.30
6343;BME280;3204;42.698;23.298;2022-08-01T06:48:22;94802.59;;;25.32;45.10
6343;BME280;3204;42.698;23.298;2022-08-01T06:50:48;94805.28;;;25.46;45.09
6343;BME280;3204;42.698;23.298;2022-08-01T06:53:13;94804.38;;;25.60;45.28
6343;BME280;3204;42.698;23.298;2022-08-01T06:55:39;94806.66;;;25.75;44.92
6343;BME280;3204;42.698;23.298;2022-08-01T06:58:04;94800.22;;;25.85;44.11
6343;BME280;3204;42.698;23.298;2022-08-01T07:00:30;94795.75;;;26.02;44.31
6343;BME280;3204;42.698;23.298;2022-08-01T07:02:57;94792.41;;;26.21;44.46
6343;BME280;3204;42.698;23.298;2022-08-01T07:05:23;94786.28;;;26.36;43.57
6343;BME280;3204;42.698;23.298;2022-08-01T07:07:50;94791.31;;;26.48;44.23
6343;BME280;3204;42.698;23.298;2022-08-01T07:10:16;94786.78;;;26.65;43.82
6343;BME280;3204;42.698;23.298;2022-08-01T07:12:41;94783.94;;;26.72;43.71
6343;BME280;3204;42.698;23.298;2022-08-01T07:15:09;94796.28;;;26.71;43.34
6343;BME280;3204;42.698;23.298;2022-08-01T07:17:42;94797.34;;;26.80;43.50
6343;BME280;3204;42.698;23.298;2022-08-01T07:20:08;94791.25;;;26.92;43.59
6343;BME280;3204;42.698;23.298;2022-08-01T07:22:34;94799.44;;;27.06;43.30
6343;BME280;3204;42.698;23.298;2022-08-01T07:25:00;94802.84;;;27.21;42.22
6343;BME280;3204;42.698;23.298;2022-08-01T07:27:25;94817.09;;;27.27;41.99
6343;BME280;3204;42.698;23.298;2022-08-01T07:29:51;94794.44;;;27.24;41.86
6343;BME280;3204;42.698;23.298;2022-08-01T07:32:16;94807.81;;;27.37;41.85
6343;BME280;3204;42.698;23.298;2022-08-01T07:34:42;94800.00;;;27.55;41.46
6343;BME280;3204;42.698;23.298;2022-08-01T07:37:07;94784.28;;;27.68;41.05
6343;BME280;3204;42.698;23.298;2022-08-01T07:39:33;94794.47;;;27.78;41.44
6343;BME280;3204;42.698;23.298;2022-08-01T07:41:59;94796.88;;;27.76;40.98
6343;BME280;3204;42.698;23.298;2022-08-01T07:44:24;94812.88;;;27.72;41.16
6343;BME280;3204;42.698;23.298;2022-08-01T07:46:49;94786.13;;;27.74;41.01
6343;BME280;3204;42.698;23.298;2022-08-01T07:49:15;94804.03;;;27.77;40.92
6343;BME280;3204;42.698;23.298;2022-08-01T07:51:41;94809.13;;;27.85;40.57
6343;BME280;3204;42.698;23.298;2022-08-01T07:54:06;94809.78;;;27.93;40.26
6343;BME280;3204;42.698;23.298;2022-08-01T07:56:32;94808.50;;;27.97;40.71
6343;BME280;3204;42.698;23.298;2022-08-01T07:58:58;94802.91;;;28.01;40.75
6343;BME280;3204;42.698;23.298;2022-08-01T08:01:23;94802.59;;;28.18;40.28
6343;BME280;3204;42.698;23.298;2022-08-01T08:03:49;94801.91;;;28.34;40.54
6343;BME280;3204;42.698;23.298;2022-08-01T08:06:14;94810.84;;;28.48;39.89
6343;BME280;3204;42.698;23.298;2022-08-01T08:08:40;94793.78;;;28.66;39.83
6343;BME280;3204;42.698;23.298;2022-08-01T08:11:06;94795.78;;;28.85;39.48
6343;BME280;3204;42.698;23.298;2022-08-01T08:13:31;94793.97;;;28.98;39.71
6343;BME280;3204;42.698;23.298;2022-08-01T08:15:57;94784.78;;;29.17;38.97
6343;BME280;3204;42.698;23.298;2022-08-01T08:18:24;94795.59;;;29.34;39.28
6343;BME280;3204;42.698;23.298;2022-08-01T08:20:49;94782.50;;;29.31;37.94
6343;BME280;3204;42.698;23.298;2022-08-01T08:23:15;94785.84;;;29.23;38.14
6343;BME280;3204;42.698;23.298;2022-08-01T08:25:59;94782.66;;;29.40;38.19
6343;BME280;3204;42.698;23.298;2022-08-01T08:28:25;94780.06;;;29.49;38.77
6343;BME280;3204;42.698;23.298;2022-08-01T08:30:50;94785.13;;;29.58;38.13
6343;BME280;3204;42.698;23.298;2022-08-01T08:33:16;94777.03;;;29.79;38.11
6343;BME280;3204;42.698;23.298;2022-08-01T08:35:41;94798.72;;;30.07;37.76
6343;BME280;3204;42.698;23.298;2022-08-01T08:38:07;94797.22;;;30.03;36.22
6343;BME280;3204;42.698;23.298;2022-08-01T08:40:35;94791.53;;;30.06;36.77
6343;BME280;3204;42.698;23.298;2022-08-01T08:43:02;94784.28;;;30.09;36.61
6343;BME280;3204;42.698;23.298;2022-08-01T08:45:29;94792.72;;;30.25;36.92
6343;BME280;3204;42.698;23.298;2022-08-01T08:47:55;94793.22;;;30.36;35.74
6343;BME280;3204;42.698;23.298;2022-08-01T08:50:22;94798.72;;;30.39;35.52
6343;BME280;3204;42.698;23.298;2022-08-01T08:52:48;94788.84;;;30.35;35.38
6343;BME280;3204;42.698;23.298;2022-08-01T08:55:16;94796.91;;;30.17;35.91
6343;BME280;3204;42.698;23.298;2022-08-01T08:57:43;94796.53;;;29.99;35.65
6343;BME280;3204;42.698;23.298;2022-08-01T09:00:10;94783.38;;;29.80;35.77
6343;BME280;3204;42.698;23.298;2022-08-01T09:02:41;94787.25;;;29.86;35.83
6343;BME280;3204;42.698;23.298;2022-08-01T09:05:07;94783.56;;;29.73;35.88
6343;BME280;3204;42.698;23.298;2022-08-01T09:07:34;94790.22;;;29.79;35.99
6343;BME280;3204;42.698;23.298;2022-08-01T09:09:59;94780.50;;;29.67;35.17
6343;BME280;3204;42.698;23.298;2022-08-01T09:12:24;94789.00;;;29.80;34.93
6343;BME280;3204;42.698;23.298;2022-08-01T09:14:50;94777.16;;;29.56;34.96
6343;BME280;3204;42.698;23.298;2022-08-01T09:17:19;94768.84;;;29.53;35.32
6343;BME280;3204;42.698;23.298;2022-08-01T09:19:48;94776.66;;;29.77;35.34
6343;BME280;3204;42.698;23.298;2022-08-01T09:22:18;94773.84;;;29.77;34.47
6343;BME280;3204;42.698;23.298;2022-08-01T09:27:27;94773.38;;;29.98;33.50
6343;BME280;3204;42.698;23.298;2022-08-01T09:29:53;94769.44;;;30.12;33.74
6343;BME280;3204;42.698;23.298;2022-08-01T09:32:20;94776.44;;;30.20;34.53
6343;BME280;3204;42.698;23.298;2022-08-01T09:34:46;94761.38;;;29.98;34.21
6343;BME280;3204;42.698;23.298;2022-08-01T09:37:12;94766.34;;;30.06;34.33
6343;BME280;3204;42.698;23.298;2022-08-01T09:39:39;94762.88;;;30.02;34.25
6343;BME280;3204;42.698;23.298;2022-08-01T09:42:26;94770.41;;;30.21;34.99
6343;BME280;3204;42.698;23.298;2022-08-01T09:44:52;94761.63;;;30.51;35.28
6343;BME280;3204;42.698;23.298;2022-08-01T09:47:19;94770.69;;;30.71;34.46
6343;BME280;3204;42.698;23.298;2022-08-01T09:49:53;94774.13;;;30.91;34.68
6343;BME280;3204;42.698;23.298;2022-08-01T09:52:24;94762.47;;;30.93;34.73
6343;BME280;3204;42.698;23.298;2022-08-01T09:54:58;94781.50;;;31.14;34.33
6343;BME280;3204;42.698;23.298;2022-08-01T09:57:25;94778.75;;;30.98;34.32
6343;BME280;3204;42.698;23.298;2022-08-01T09:59:53;94765.00;;;31.03;33.78
6343;BME280;3204;42.698;23.298;2022-08-01T10:05:04;94772.34;;;31.26;34.17
6343;BME280;3204;42.698;23.298;2022-08-01T10:07:30;94772.31;;;30.85;34.56
6343;BME280;3204;42.698;23.298;2022-08-01T10:10:12;94758.38;;;30.69;34.54
6343;BME280;3204;42.698;23.298;2022-08-01T10:12:37;94763.28;;;30.49;34.33
6343;BME280;3204;42.698;23.298;2022-08-01T10:15:05;94761.50;;;30.55;34.51
6343;BME280;3204;42.698;23.298;2022-08-01T10:17:33;94766.25;;;30.58;34.76
6343;BME280;3204;42.698;23.298;2022-08-01T10:20:01;94761.06;;;30.72;34.67
6343;BME280;3204;42.698;23.298;2022-08-01T10:22:30;94760.13;;;30.91;34.40
6343;BME280;3204;42.698;23.298;2022-08-01T10:24:57;94753.53;;;30.98;34.85
6343;BME280;3204;42.698;23.298;2022-08-01T10:27:29;94757.06;;;31.14;34.58
6343;BME280;3204;42.698;23.298;2022-08-01T10:29:59;94747.31;;;31.19;34.36
6343;BME280;3204;42.698;23.298;2022-08-01T10:32:34;94744.78;;;31.37;34.15
6343;BME280;3204;42.698;23.298;2022-08-01T10:35:01;94741.66;;;31.60;33.92
6343;BME280;3204;42.698;23.298;2022-08-01T10:37:27;94745.59;;;31.62;34.52
6343;BME280;3204;42.698;23.298;2022-08-01T10:39:53;94751.88;;;31.41;34.46
6343;BME280;3204;42.698;23.298;2022-08-01T10:42:19;94750.19;;;31.44;33.79
6343;BME280;3204;42.698;23.298;2022-08-01T10:44:45;94739.66;;;31.48;33.87
6343;BME280;3204;42.698;23.298;2022-08-01T10:47:25;94736.59;;;31.55;33.23
6343;BME280;3204;42.698;23.298;2022-08-01T10:50:07;94735.84;;;31.67;34.22
6343;BME280;3204;42.698;23.298;2022-08-01T10:52:37;94733.47;;;31.53;33.54
6343;BME280;3204;42.698;23.298;2022-08-01T10:55:07;94723.59;;;31.61;33.20
6343;BME280;3204;42.698;23.298;2022-08-01T10:57:46;94730.00;;;31.74;33.55
6343;BME280;3204;42.698;23.298;2022-08-01T11:00:20;94733.81;;;31.80;33.63
6343;BME280;3204;42.698;23.298;2022-08-01T11:02:59;94736.31;;;31.78;33.56
6343;BME280;3204;42.698;23.298;2022-08-01T11:05:33;94734.84;;;31.07;34.32
6343;BME280;3204;42.698;23.298;2022-08-01T11:08:07;94736.97;;;31.16;34.27
6343;BME280;3204;42.698;23.298;2022-08-01T11:10:39;94734.69;;;31.39;33.98
6343;BME280;3204;42.698;23.298;2022-08-01T11:13:06;94715.84;;;31.40;34.14
6343;BME280;3204;42.698;23.298;2022-08-01T11:15:42;94726.06;;;31.46;33.81
6343;BME280;3204;42.698;23.298;2022-08-01T11:20:59;94725.88;;;30.71;34.72
6343;BME280;3204;42.698;23.298;2022-08-01T11:23:29;94720.16;;;30.75;35.00
6343;BME280;3204;42.698;23.298;2022-08-01T11:28:22;94719.41;;;30.58;35.62
6343;BME280;3204;42.698;23.298;2022-08-01T11:30:53;94723.53;;;30.82;34.93
6343;BME280;3204;42.698;23.298;2022-08-01T11:38:37;94721.00;;;30.88;35.22
6343;BME280;3204;42.698;23.298;2022-08-01T11:44:00;94715.03;;;31.27;33.94
6343;BME280;3204;42.698;23.298;2022-08-01T11:46:51;94718.88;;;31.45;34.63
6343;BME280;3204;42.698;23.298;2022-08-01T11:49:34;94704.63;;;31.65;34.05
6343;BME280;3204;42.698;23.298;2022-08-01T11:52:29;94699.59;;;31.85;33.83
6343;BME280;3204;42.698;23.298;2022-08-01T11:55:05;94696.31;;;31.99;33.85
6343;BME280;3204;42.698;23.298;2022-08-01T11:57:32;94713.91;;;32.12;34.11
6343;BME280;3204;42.698;23.298;2022-08-01T12:00:16;94709.31;;;32.30;33.25
6343;BME280;3204;42.698;23.298;2022-08-01T12:02:44;94706.63;;;32.48;33.03
6343;BME280;3204;42.698;23.298;2022-08-01T12:05:11;94704.91;;;32.42;32.92
6343;BME280;3204;42.698;23.298;2022-08-01T12:07:39;94707.22;;;32.43;33.33
6343;BME280;3204;42.698;23.298;2022-08-01T12:10:14;94715.47;;;32.38;33.42
6343;BME280;3204;42.698;23.298;2022-08-01T12:12:51;94698.06;;;32.30;33.38
6343;BME280;3204;42.698;23.298;2022-08-01T12:15:19;94704.94;;;32.04;33.07
6343;BME280;3204;42.698;23.298;2022-08-01T12:17:51;94709.34;;;31.68;33.61
6343;BME280;3204;42.698;23.298;2022-08-01T12:20:22;94704.19;;;31.79;33.92
6343;BME280;3204;42.698;23.298;2022-08-01T12:22:52;94702.03;;;31.95;33.62
6343;BME280;3204;42.698;23.298;2022-08-01T12:25:17;94700.91;;;31.93;33.95
6343;BME280;3204;42.698;23.298;2022-08-01T12:27:45;94703.06;;;31.89;33.55
6343;BME280;3204;42.698;23.298;2022-08-01T12:30:13;94685.31;;;31.92;33.41
6343;BME280;3204;42.698;23.298;2022-08-01T12:32:41;94699.38;;;31.79;33.49
6343;BME280;3204;42.698;23.298;2022-08-01T12:35:08;94701.84;;;31.77;33.45
6343;BME280;3204;42.698;23.298;2022-08-01T12:37:57;94699.81;;;31.78;34.13
6343;BME280;3204;42.698;23.298;2022-08-01T12:40:35;94699.94;;;31.87;33.57
6343;BME280;3204;42.698;23.298;2022-08-01T12:43:03;94698.00;;;31.96;33.57
6343;BME280;3204;42.698;23.298;2022-08-01T12:45:40;94704.41;;;31.72;34.60
6343;BME280;3204;42.698;23.298;2022-08-01T12:48:09;94695.53;;;31.48;34.20
6343;BME280;3204;42.698;23.298;2022-08-01T12:50:47;94698.22;;;31.27;34.47
6343;BME280;3204;42.698;23.298;2022-08-01T12:53:14;94692.19;;;31.41;34.45
6343;BME280;3204;42.698;23.298;2022-08-01T12:55:48;94688.47;;;31.69;34.26
6343;BME280;3204;42.698;23.298;2022-08-01T12:58:15;94680.28;;;31.87;34.05
6343;BME280;3204;42.698;23.298;2022-08-01T13:00:44;94687.97;;;32.08;34.12
6343;BME280;3204;42.698;23.298;2022-08-01T13:03:14;94683.03;;;32.12;34.14
6343;BME280;3204;42.698;23.298;2022-08-01T13:08:36;94687.63;;;32.18;33.86
6343;BME280;3204;42.698;23.298;2022-08-01T13:11:08;94679.06;;;32.22;33.79
6343;BME280;3204;42.698;23.298;2022-08-01T13:13:48;94687.63;;;32.18;34.33
6343;BME280;3204;42.698;23.298;2022-08-01T13:16:20;94681.94;;;32.43;34.04
6343;BME280;3204;42.698;23.298;2022-08-01T13:18:53;94671.00;;;32.58;33.72
6343;BME280;3204;42.698;23.298;2022-08-01T13:21:28;94681.66;;;32.63;33.26
6343;BME280;3204;42.698;23.298;2022-08-01T13:24:09;94682.91;;;32.28;33.05
6343;BME280;3204;42.698;23.298;2022-08-01T13:26:43;94676.09;;;32.04;33.66
6343;BME280;3204;42.698;23.298;2022-08-01T13:29:10;94671.19;;;31.83;34.25
6343;BME280;3204;42.698;23.298;2022-08-01T13:31:36;94665.84;;;31.76;34.46
6343;BME280;3204;42.698;23.298;2022-08-01T13:34:03;94667.16;;;31.84;34.67
6343;BME280;3204;42.698;23.298;2022-08-01T13:36:29;94677.47;;;31.87;33.95
6343;BME280;3204;42.698;23.298;2022-08-01T13:38:59;94665.03;;;31.75;34.55
6343;BME280;3204;42.698;23.298;2022-08-01T13:41:43;94662.09;;;31.79;34.52
6343;BME280;3204;42.698;23.298;2022-08-01T13:44:09;94658.41;;;31.82;34.55